sensor_id;sensor_type;location;lat;lon;timestamp;pressure;altitude;pressure_sealevel;temperature;humidity
75045;BME280;63614;56.026;35.960;2022-11-14T00:02:00;99863.91;;;0.57;77.30
75045;BME280;63614;56.026;35.960;2022-11-14T00:04:45;99867.41;;;0.56;77.25
75045;BME280;63614;56.026;35.960;2022-11-14T00:07:31;99860.56;;;0.56;77.96
75045;BME280;63614;56.026;35.960;2022-11-14T00:10:16;99859.94;;;0.52;77.58
75045;BME280;63614;56.026;35.960;2022-11-14T00:13:00;99878.13;;;0.61;77.62
75045;BME280;63614;56.026;35.960;2022-11-14T00:15:48;99861.94;;;0.60;76.92
75045;BME280;63614;56.026;35.960;2022-11-14T00:18:33;99872.06;;;0.62;76.84
75045;BME280;63614;56.026;35.960;2022-11-14T00:21:18;99865.47;;;0.70;76.12
75045;BME280;63614;56.026;35.960;2022-11-14T00:24:02;99872.56;;;0.67;76.03
75045;BME280;63614;56.026;35.960;2022-11-14T00:26:47;99869.06;;;0.68;75.41
75045;BME280;63614;56.026;35.960;2022-11-14T00:29:31;99873.50;;;0.66;74.55
75045;BME280;63614;56.026;35.960;2022-11-14T00:32:16;99874.44;;;0.76;74.08
75045;BME280;63614;56.026;35.960;2022-11-14T00:35:00;99882.38;;;0.84;73.62
75045;BME280;63614;56.026;35.960;2022-11-14T00:37:45;99886.13;;;0.92;72.16
75045;BME280;63614;56.026;35.960;2022-11-14T00:40:29;99883.59;;;1.03;71.79
75045;BME280;63614;56.026;35.960;2022-11-14T00:43:14;99892.81;;;1.17;71.20
75045;BME280;63614;56.026;35.960;2022-11-14T00:45:59;99886.16;;;1.14;70.51
75045;BME280;63614;56.026;35.960;2022-11-14T00:48:43;99884.06;;;1.19;70.52
75045;BME280;63614;56.026;35.960;2022-11-14T00:51:28;99893.75;;;1.16;70.18
75045;BME280;63614;56.026;35.960;2022-11-14T00:54:12;99877.81;;;1.23;69.43
75045;BME280;63614;56.026;35.960;2022-11-14T00:56:57;99878.03;;;1.32;69.13
75045;BME280;63614;56.026;35.960;2022-11-14T00:59:42;99891.66;;;1.32;69.19
75045;BME280;63614;56.026;35.960;2022-11-14T01:02:26;99897.16;;;1.39;69.13
75045;BME280;63614;56.026;35.960;2022-11-14T01:05:11;99892.38;;;1.45;69.52
75045;BME280;63614;56.026;35.960;2022-11-14T01:07:55;99891.31;;;1.37;70.03
75045;BME280;63614;56.026;35.960;2022-11-14T01:10:42;99893.75;;;1.38;70.17
75045;BME280;63614;56.026;35.960;2022-11-14T01:13:30;99899.22;;;1.45;71.09
75045;BME280;63614;56.026;35.960;2022-11-14T01:16:15;99902.28;;;1.39;70.86
75045;BME280;63614;56.026;35.960;2022-11-14T01:18:59;99907.53;;;1.37;71.44
75045;BME280;63614;56.026;35.960;2022-11-14T01:21:44;99903.22;;;1.38;71.07
75045;BME280;63614;56.026;35.960;2022-11-14T01:24:31;99908.91;;;1.30;71.65
75045;BME280;63614;56.026;35.960;2022-11-14T01:27:15;99929.06;;;1.35;72.86
75045;BME280;63614;56.026;35.960;2022-11-14T01:30:00;99936.94;;;1.09;75.58
75045;BME280;63614;56.026;35.960;2022-11-14T01:32:44;99952.69;;;0.80;79.18
75045;BME280;63614;56.026;35.960;2022-11-14T01:35:30;99991.53;;;0.50;80.21
75045;BME280;63614;56.026;35.960;2022-11-14T01:38:15;99954.91;;;-0.01;82.79
75045;BME280;63614;56.026;35.960;2022-11-14T01:40:59;99957.59;;;-0.15;83.34
75045;BME280;63614;56.026;35.960;2022-11-14T01:43:44;99964.56;;;-0.17;83.27
75045;BME280;63614;56.026;35.960;2022-11-14T01:46:34;99964.38;;;-0.27;82.27
75045;BME280;63614;56.026;35.960;2022-11-14T01:49:26;99965.97;;;-0.26;81.64
75045;BME280;63614;56.026;35.960;2022-11-14T01:52:25;99969.97;;;-0.22;81.22
75045;BME280;63614;56.026;35.960;2022-11-14T01:55:11;99972.22;;;-0.17;80.46
75045;BME280;63614;56.026;35.960;2022-11-14T01:57:56;99975.91;;;-0.21;79.10
75045;BME280;63614;56.026;35.960;2022-11-14T02:00:41;99974.78;;;-0.17;78.69
75045;BME280;63614;56.026;35.960;2022-11-14T02:03:27;99977.25;;;-0.15;78.59
75045;BME280;63614;56.026;35.960;2022-11-14T02:06:13;99985.00;;;-0.17;78.74
75045;BME280;63614;56.026;35.960;2022-11-14T02:09:01;99988.16;;;-0.13;77.84
75045;BME280;63614;56.026;35.960;2022-11-14T02:11:47;99987.66;;;-0.06;77.83
75045;BME280;63614;56.026;35.960;2022-11-14T02:14:32;99991.75;;;-0.03;77.43
75045;BME280;63614;56.026;35.960;2022-11-14T02:17:18;99978.63;;;0.02;76.41
75045;BME280;63614;56.026;35.960;2022-11-14T02:22:49;99983.34;;;-0.05;74.83
75045;BME280;63614;56.026;35.960;2022-11-14T02:25:34;99990.31;;;-0.07;74.21
75045;BME280;63614;56.026;35.960;2022-11-14T02:28:18;99987.47;;;-0.15;73.84
75045;BME280;63614;56.026;35.960;2022-11-14T02:31:04;99993.50;;;-0.16;73.61
75045;BME280;63614;56.026;35.960;2022-11-14T02:33:49;99987.78;;;-0.20;72.52
75045;BME280;63614;56.026;35.960;2022-11-14T02:36:33;100000.25;;;-0.28;72.02
75045;BME280;63614;56.026;35.960;2022-11-14T02:39:17;99990.94;;;-0.29;71.55
75045;BME280;63614;56.026;35.960;2022-11-14T02:42:02;99996.16;;;-0.31;72.43
75045;BME280;63614;56.026;35.960;2022-11-14T02:44:46;100004.97;;;-0.35;72.14
75045;BME280;63614;56.026;35.960;2022-11-14T02:47:31;100000.88;;;-0.38;72.78
75045;BME280;63614;56.026;35.960;2022-11-14T02:50:16;99988.78;;;-0.48;73.00
75045;BME280;63614;56.026;35.960;2022-11-14T02:53:00;99995.75;;;-0.50;73.01
75045;BME280;63614;56.026;35.960;2022-11-14T02:55:45;100015.78;;;-0.57;72.86
75045;BME280;63614;56.026;35.960;2022-11-14T02:58:29;100005.75;;;-0.60;72.84
75045;BME280;63614;56.026;35.960;2022-11-14T03:01:13;100010.34;;;-0.65;72.87
75045;BME280;63614;56.026;35.960;2022-11-14T03:03:57;100012.81;;;-0.64;72.64
75045;BME280;63614;56.026;35.960;2022-11-14T03:06:42;100008.91;;;-0.69;72.45
75045;BME280;63614;56.026;35.960;2022-11-14T03:09:26;100011.56;;;-0.71;72.26
75045;BME280;63614;56.026;35.960;2022-11-14T03:12:15;100006.84;;;-0.77;71.70
75045;BME280;63614;56.026;35.960;2022-11-14T03:14:59;100021.47;;;-0.79;71.90
75045;BME280;63614;56.026;35.960;2022-11-14T03:17:44;100028.41;;;-0.81;70.89
75045;BME280;63614;56.026;35.960;2022-11-14T03:20:28;100022.56;;;-0.83;70.14
75045;BME280;63614;56.026;35.960;2022-11-14T03:23:12;100026.06;;;-0.84;69.77
75045;BME280;63614;56.026;35.960;2022-11-14T03:26:01;100030.44;;;-0.74;69.37
75045;BME280;63614;56.026;35.960;2022-11-14T03:28:45;100027.19;;;-0.76;68.38
75045;BME280;63614;56.026;35.960;2022-11-14T03:31:29;100018.84;;;-0.65;67.74
75045;BME280;63614;56.026;35.960;2022-11-14T03:34:14;100033.88;;;-0.60;66.80
75045;BME280;63614;56.026;35.960;2022-11-14T03:36:58;100030.19;;;-0.56;66.61
75045;BME280;63614;56.026;35.960;2022-11-14T03:39:43;100036.94;;;-0.55;65.88
75045;BME280;63614;56.026;35.960;2022-11-14T03:42:33;100039.28;;;-0.52;66.55
75045;BME280;63614;56.026;35.960;2022-11-14T03:45:18;100047.56;;;-0.48;66.79
75045;BME280;63614;56.026;35.960;2022-11-14T03:48:04;100046.25;;;-0.54;65.68
75045;BME280;63614;56.026;35.960;2022-11-14T03:50:48;100065.16;;;-0.44;65.81
75045;BME280;63614;56.026;35.960;2022-11-14T03:53:33;100050.97;;;-0.48;65.75
75045;BME280;63614;56.026;35.960;2022-11-14T03:56:17;100062.28;;;-0.52;66.34
75045;BME280;63614;56.026;35.960;2022-11-14T03:59:02;100055.94;;;-0.46;66.05
75045;BME280;63614;56.026;35.960;2022-11-14T04:01:46;100049.81;;;-0.44;65.95
75045;BME280;63614;56.026;35.960;2022-11-14T04:04:31;100057.78;;;-0.48;65.59
75045;BME280;63614;56.026;35.960;2022-11-14T04:07:16;100061.38;;;-0.51;65.73
75045;BME280;63614;56.026;35.960;2022-11-14T04:10:00;100071.78;;;-0.54;65.27
75045;BME280;63614;56.026;35.960;2022-11-14T04:12:50;100068.00;;;-0.61;66.24
75045;BME280;63614;56.026;35.960;2022-11-14T04:15:34;100070.53;;;-0.61;66.35
75045;BME280;63614;56.026;35.960;2022-11-14T04:18:19;100071.41;;;-0.75;65.84
75045;BME280;63614;56.026;35.960;2022-11-14T04:21:04;100086.31;;;-0.82;65.73
75045;BME280;63614;56.026;35.960;2022-11-14T04:23:48;100083.16;;;-0.85;66.12
75045;BME280;63614;56.026;35.960;2022-11-14T04:26:33;100093.75;;;-0.92;66.84
75045;BME280;63614;56.026;35.960;2022-11-14T04:29:17;100101.59;;;-0.95;66.80
75045;BME280;63614;56.026;35.960;2022-11-14T04:32:02;100101.06;;;-1.00;66.93
75045;BME280;63614;56.026;35.960;2022-11-14T04:34:46;100090.63;;;-1.10;66.60
75045;BME280;63614;56.026;35.960;2022-11-14T04:37:31;100104.56;;;-1.15;67.20
75045;BME280;63614;56.026;35.960;2022-11-14T04:40:15;100112.59;;;-1.21;66.91
75045;BME280;63614;56.026;35.960;2022-11-14T04:43:00;100118.00;;;-1.26;67.02
75045;BME280;63614;56.026;35.960;2022-11-14T04:45:45;100120.94;;;-1.32;67.69
75045;BME280;63614;56.026;35.960;2022-11-14T04:48:30;100122.72;;;-1.34;67.68
75045;BME280;63614;56.026;35.960;2022-11-14T04:51:14;100123.22;;;-1.42;67.87
75045;BME280;63614;56.026;35.960;2022-11-14T04:53:59;100125.03;;;-1.44;68.04
75045;BME280;63614;56.026;35.960;2022-11-14T04:56:43;100126.94;;;-1.48;68.60
75045;BME280;63614;56.026;35.960;2022-11-14T04:59:28;100122.81;;;-1.50;68.54
75045;BME280;63614;56.026;35.960;2022-11-14T05:02:13;100131.69;;;-1.56;68.49
75045;BME280;63614;56.026;35.960;2022-11-14T05:04:57;100145.16;;;-1.54;68.55
75045;BME280;63614;56.026;35.960;2022-11-14T05:07:42;100136.78;;;-1.56;68.94
75045;BME280;63614;56.026;35.960;2022-11-14T05:10:26;100139.53;;;-1.59;68.62
75045;BME280;63614;56.026;35.960;2022-11-14T05:13:11;100155.00;;;-1.62;68.76
75045;BME280;63614;56.026;35.960;2022-11-14T05:16:00;100157.91;;;-1.68;68.68
75045;BME280;63614;56.026;35.960;2022-11-14T05:18:44;100162.47;;;-1.73;69.12
75045;BME280;63614;56.026;35.960;2022-11-14T05:21:29;100165.09;;;-1.75;68.83
75045;BME280;63614;56.026;35.960;2022-11-14T05:24:14;100174.50;;;-1.75;68.99
75045;BME280;63614;56.026;35.960;2022-11-14T05:26:58;100175.13;;;-1.72;68.77
75045;BME280;63614;56.026;35.960;2022-11-14T05:29:43;100176.78;;;-1.71;68.86
75045;BME280;63614;56.026;35.960;2022-11-14T05:32:30;100174.31;;;-1.72;68.87
75045;BME280;63614;56.026;35.960;2022-11-14T05:35:14;100182.69;;;-1.70;68.72
75045;BME280;63614;56.026;35.960;2022-11-14T05:37:59;100185.69;;;-1.78;68.96
75045;BME280;63614;56.026;35.960;2022-11-14T05:40:45;100191.34;;;-1.73;68.97
75045;BME280;63614;56.026;35.960;2022-11-14T05:43:29;100191.16;;;-1.70;68.43
75045;BME280;63614;56.026;35.960;2022-11-14T05:46:15;100198.53;;;-1.65;68.16
75045;BME280;63614;56.026;35.960;2022-11-14T05:48:59;100188.97;;;-1.61;67.83
75045;BME280;63614;56.026;35.960;2022-11-14T05:51:44;100191.63;;;-1.63;67.99
75045;BME280;63614;56.026;35.960;2022-11-14T05:54:28;100187.91;;;-1.57;67.44
75045;BME280;63614;56.026;35.960;2022-11-14T05:57:13;100197.66;;;-1.50;67.20
75045;BME280;63614;56.026;35.960;2022-11-14T05:59:57;100204.88;;;-1.42;67.06
75045;BME280;63614;56.026;35.960;2022-11-14T06:02:42;100201.22;;;-1.38;66.44
75045;BME280;63614;56.026;35.960;2022-11-14T06:05:29;100207.13;;;-1.37;66.45
75045;BME280;63614;56.026;35.960;2022-11-14T06:08:14;100211.31;;;-1.36;66.88
75045;BME280;63614;56.026;35.960;2022-11-14T06:11:04;100209.22;;;-1.30;66.72
75045;BME280;63614;56.026;35.960;2022-11-14T06:13:50;100220.56;;;-1.19;66.32
75045;BME280;63614;56.026;35.960;2022-11-14T06:16:34;100220.19;;;-1.27;65.93
75045;BME280;63614;56.026;35.960;2022-11-14T06:19:19;100213.53;;;-1.16;66.10
75045;BME280;63614;56.026;35.960;2022-11-14T06:22:04;100211.16;;;-1.19;66.04
75045;BME280;63614;56.026;35.960;2022-11-14T06:24:49;100205.41;;;-1.08;65.76
75045;BME280;63614;56.026;35.960;2022-11-14T06:27:33;100223.72;;;-1.01;65.26
75045;BME280;63614;56.026;35.960;2022-11-14T06:30:17;100219.59;;;-0.89;65.55
75045;BME280;63614;56.026;35.960;2022-11-14T06:33:02;100226.44;;;-0.90;65.39
75045;BME280;63614;56.026;35.960;2022-11-14T06:35:46;100219.78;;;-0.93;65.06
75045;BME280;63614;56.026;35.960;2022-11-14T06:38:32;100220.97;;;-0.84;65.10
75045;BME280;63614;56.026;35.960;2022-11-14T06:41:18;100233.03;;;-0.86;64.66
75045;BME280;63614;56.026;35.960;2022-11-14T06:44:06;100227.06;;;-0.86;65.07
75045;BME280;63614;56.026;35.960;2022-11-14T06:46:51;100234.28;;;-0.79;64.83
75045;BME280;63614;56.026;35.960;2022-11-14T06:49:35;100231.25;;;-0.71;64.33
75045;BME280;63614;56.026;35.960;2022-11-14T06:52:19;100231.78;;;-0.66;64.44
75045;BME280;63614;56.026;35.960;2022-11-14T06:55:04;100238.47;;;-0.63;64.82
75045;BME280;63614;56.026;35.960;2022-11-14T06:57:54;100240.53;;;-0.56;65.13
75045;BME280;63614;56.026;35.960;2022-11-14T07:00:39;100254.94;;;-0.55;64.92
75045;BME280;63614;56.026;35.960;2022-11-14T07:03:24;100257.50;;;-0.55;64.78
75045;BME280;63614;56.026;35.960;2022-11-14T07:06:10;100259.03;;;-0.38;64.67
75045;BME280;63614;56.026;35.960;2022-11-14T07:08:56;100259.31;;;-0.42;64.30
75045;BME280;63614;56.026;35.960;2022-11-14T07:11:40;100267.25;;;-0.47;64.28
75045;BME280;63614;56.026;35.960;2022-11-14T07:14:25;100252.28;;;-0.53;64.72
75045;BME280;63614;56.026;35.960;2022-11-14T07:17:11;100268.56;;;-0.54;64.94
75045;BME280;63614;56.026;35.960;2022-11-14T07:19:55;100267.25;;;-0.47;65.07
75045;BME280;63614;56.026;35.960;2022-11-14T07:22:40;100272.41;;;-0.34;64.45
75045;BME280;63614;56.026;35.960;2022-11-14T07:25:24;100280.28;;;-0.37;63.76
75045;BME280;63614;56.026;35.960;2022-11-14T07:28:09;100278.66;;;-0.38;64.04
75045;BME280;63614;56.026;35.960;2022-11-14T07:30:54;100271.38;;;-0.44;63.31
75045;BME280;63614;56.026;35.960;2022-11-14T07:33:39;100286.03;;;-0.33;63.66
75045;BME280;63614;56.026;35.960;2022-11-14T07:36:23;100283.53;;;-0.21;63.24
75045;BME280;63614;56.026;35.960;2022-11-14T07:39:07;100287.34;;;-0.13;63.38
75045;BME280;63614;56.026;35.960;2022-11-14T07:41:52;100292.16;;;-0.09;62.93
75045;BME280;63614;56.026;35.960;2022-11-14T07:44:37;100290.13;;;-0.04;63.06
75045;BME280;63614;56.026;35.960;2022-11-14T07:47:21;100277.50;;;-0.20;62.90
75045;BME280;63614;56.026;35.960;2022-11-14T07:50:06;100290.19;;;-0.18;62.99
75045;BME280;63614;56.026;35.960;2022-11-14T07:52:52;100297.47;;;-0.12;62.30
75045;BME280;63614;56.026;35.960;2022-11-14T07:55:37;100291.84;;;-0.17;62.11
75045;BME280;63614;56.026;35.960;2022-11-14T07:58:22;100295.69;;;-0.24;61.91
75045;BME280;63614;56.026;35.960;2022-11-14T08:01:09;100299.50;;;-0.17;62.09
75045;BME280;63614;56.026;35.960;2022-11-14T08:03:55;100296.91;;;-0.03;61.86
75045;BME280;63614;56.026;35.960;2022-11-14T08:06:39;100300.28;;;-0.02;61.57
75045;BME280;63614;56.026;35.960;2022-11-14T08:09:24;100298.66;;;-0.03;60.87
75045;BME280;63614;56.026;35.960;2022-11-14T08:12:08;100304.56;;;-0.03;60.85
75045;BME280;63614;56.026;35.960;2022-11-14T08:14:53;100313.28;;;0.08;60.97
75045;BME280;63614;56.026;35.960;2022-11-14T08:17:38;100306.84;;;0.02;60.04
75045;BME280;63614;56.026;35.960;2022-11-14T08:20:23;100308.31;;;-0.08;60.12
75045;BME280;63614;56.026;35.960;2022-11-14T08:23:09;100299.75;;;-0.07;60.76
75045;BME280;63614;56.026;35.960;2022-11-14T08:25:53;100300.75;;;-0.10;60.90
75045;BME280;63614;56.026;35.960;2022-11-14T08:28:38;100307.09;;;0.12;60.45
75045;BME280;63614;56.026;35.960;2022-11-14T08:31:23;100298.81;;;0.21;60.44
75045;BME280;63614;56.026;35.960;2022-11-14T08:34:08;100306.97;;;0.13;59.70
75045;BME280;63614;56.026;35.960;2022-11-14T08:36:53;100299.94;;;0.17;59.92
75045;BME280;63614;56.026;35.960;2022-11-14T08:39:39;100292.47;;;0.27;59.90
75045;BME280;63614;56.026;35.960;2022-11-14T08:42:23;100294.41;;;0.23;59.74
75045;BME280;63614;56.026;35.960;2022-11-14T08:45:08;100300.69;;;0.05;59.36
75045;BME280;63614;56.026;35.960;2022-11-14T08:47:53;100301.88;;;0.13;59.14
75045;BME280;63614;56.026;35.960;2022-11-14T08:50:37;100296.59;;;0.29;59.65
75045;BME280;63614;56.026;35.960;2022-11-14T08:53:22;100297.41;;;0.30;58.88
75045;BME280;63614;56.026;35.960;2022-11-14T08:56:09;100287.03;;;0.18;58.73
75045;BME280;63614;56.026;35.960;2022-11-14T08:58:54;100288.69;;;0.20;59.10
75045;BME280;63614;56.026;35.960;2022-11-14T09:01:38;100290.31;;;0.21;58.05
75045;BME280;63614;56.026;35.960;2022-11-14T09:04:22;100298.28;;;0.43;58.33
75045;BME280;63614;56.026;35.960;2022-11-14T09:07:07;100285.56;;;0.42;58.97
75045;BME280;63614;56.026;35.960;2022-11-14T09:09:51;100291.28;;;0.32;57.76
75045;BME280;63614;56.026;35.960;2022-11-14T09:12:36;100307.84;;;0.40;57.73
75045;BME280;63614;56.026;35.960;2022-11-14T09:15:21;100285.16;;;0.48;58.52
75045;BME280;63614;56.026;35.960;2022-11-14T09:18:05;100288.84;;;0.57;57.58
75045;BME280;63614;56.026;35.960;2022-11-14T09:20:50;100291.94;;;0.62;57.52
75045;BME280;63614;56.026;35.960;2022-11-14T09:23:35;100295.00;;;0.67;57.92
75045;BME280;63614;56.026;35.960;2022-11-14T09:26:19;100284.84;;;0.65;57.25
75045;BME280;63614;56.026;35.960;2022-11-14T09:29:04;100281.78;;;0.60;57.70
75045;BME280;63614;56.026;35.960;2022-11-14T09:31:50;100275.75;;;0.61;56.50
75045;BME280;63614;56.026;35.960;2022-11-14T09:34:35;100279.84;;;0.64;56.68
75045;BME280;63614;56.026;35.960;2022-11-14T09:37:20;100276.47;;;0.63;56.25
75045;BME280;63614;56.026;35.960;2022-11-14T09:40:05;100275.34;;;0.67;56.87
75045;BME280;63614;56.026;35.960;2022-11-14T09:45:53;100269.94;;;0.72;56.84
75045;BME280;63614;56.026;35.960;2022-11-14T09:48:37;100262.84;;;0.76;56.38
75045;BME280;63614;56.026;35.960;2022-11-14T09:51:29;100271.03;;;0.81;55.94
75045;BME280;63614;56.026;35.960;2022-11-14T09:54:25;100266.03;;;0.66;56.33
75045;BME280;63614;56.026;35.960;2022-11-14T09:57:16;100269.94;;;0.72;55.94
75045;BME280;63614;56.026;35.960;2022-11-14T10:00:01;100255.97;;;0.63;56.11
75045;BME280;63614;56.026;35.960;2022-11-14T10:12:03;100261.59;;;0.68;55.76
75045;BME280;63614;56.026;35.960;2022-11-14T10:17:56;100265.91;;;0.68;55.34
75045;BME280;63614;56.026;35.960;2022-11-14T10:20:56;100262.66;;;0.66;56.20
75045;BME280;63614;56.026;35.960;2022-11-14T10:26:35;100246.25;;;0.81;56.06
75045;BME280;63614;56.026;35.960;2022-11-14T10:30:04;100247.28;;;0.79;55.53
75045;BME280;63614;56.026;35.960;2022-11-14T10:35:49;100257.13;;;0.72;55.32
75045;BME280;63614;56.026;35.960;2022-11-14T10:39:10;100242.47;;;0.74;55.30
75045;BME280;63614;56.026;35.960;2022-11-14T10:42:02;100249.53;;;0.70;55.50
75045;BME280;63614;56.026;35.960;2022-11-14T10:44:57;100245.75;;;0.76;55.90
75045;BME280;63614;56.026;35.960;2022-11-14T10:47:57;100248.09;;;0.79;55.14
75045;BME280;63614;56.026;35.960;2022-11-14T10:51:02;100248.19;;;0.78;55.74
75045;BME280;63614;56.026;35.960;2022-11-14T10:54:06;100249.94;;;0.77;54.68
75045;BME280;63614;56.026;35.960;2022-11-14T10:56:55;100246.78;;;0.74;55.44
75045;BME280;63614;56.026;35.960;2022-11-14T10:59:39;100255.78;;;0.79;55.07
75045;BME280;63614;56.026;35.960;2022-11-14T11:02:25;100249.00;;;0.65;54.79
75045;BME280;63614;56.026;35.960;2022-11-14T11:05:30;100251.56;;;0.65;55.12
75045;BME280;63614;56.026;35.960;2022-11-14T11:08:19;100250.66;;;0.66;55.31
75045;BME280;63614;56.026;35.960;2022-11-14T11:11:22;100248.19;;;0.65;55.75
75045;BME280;63614;56.026;35.960;2022-11-14T11:14:17;100245.53;;;0.66;55.58
75045;BME280;63614;56.026;35.960;2022-11-14T11:20:20;100248.31;;;0.76;54.68
75045;BME280;63614;56.026;35.960;2022-11-14T11:26:09;100235.09;;;0.69;54.40
75045;BME280;63614;56.026;35.960;2022-11-14T11:31:56;100237.16;;;0.77;54.35
75045;BME280;63614;56.026;35.960;2022-11-14T11:34:41;100236.84;;;0.82;53.68
75045;BME280;63614;56.026;35.960;2022-11-14T11:37:32;100237.16;;;0.77;53.46
75045;BME280;63614;56.026;35.960;2022-11-14T11:40:21;100242.97;;;0.79;53.59
75045;BME280;63614;56.026;35.960;2022-11-14T11:43:15;100250.97;;;0.87;53.51
75045;BME280;63614;56.026;35.960;2022-11-14T11:46:15;100242.78;;;0.82;53.96
75045;BME280;63614;56.026;35.960;2022-11-14T11:52:03;100238.47;;;0.70;54.49
75045;BME280;63614;56.026;35.960;2022-11-14T11:54:59;100235.91;;;0.70;54.66
75045;BME280;63614;56.026;35.960;2022-11-14T11:58:11;100234.09;;;0.72;54.40
75045;BME280;63614;56.026;35.960;2022-11-14T12:00:58;100228.97;;;0.72;54.76
75045;BME280;63614;56.026;35.960;2022-11-14T12:03:51;100231.44;;;0.61;54.50
75045;BME280;63614;56.026;35.960;2022-11-14T12:06:52;100230.06;;;0.55;54.96
75045;BME280;63614;56.026;35.960;2022-11-14T12:09:39;100227.72;;;0.52;54.91
75045;BME280;63614;56.026;35.960;2022-11-14T12:12:32;100233.03;;;0.49;55.40
75045;BME280;63614;56.026;35.960;2022-11-14T12:22:10;100229.66;;;0.74;55.03
75045;BME280;63614;56.026;35.960;2022-11-14T12:28:17;100221.16;;;0.86;54.84
75045;BME280;63614;56.026;35.960;2022-11-14T12:31:08;100222.78;;;0.87;54.55
75045;BME280;63614;56.026;35.960;2022-11-14T12:34:23;100221.16;;;0.86;54.54
75045;BME280;63614;56.026;35.960;2022-11-14T12:37:13;100220.63;;;0.81;54.42
75045;BME280;63614;56.026;35.960;2022-11-14T12:40:06;100217.25;;;0.94;54.36
75045;BME280;63614;56.026;35.960;2022-11-14T12:42:52;100213.25;;;1.02;54.12
75045;BME280;63614;56.026;35.960;2022-11-14T12:54:44;100215.97;;;1.25;54.02
75045;BME280;63614;56.026;35.960;2022-11-14T13:03:44;100216.97;;;1.22;54.65
75045;BME280;63614;56.026;35.960;2022-11-14T13:13:08;100222.16;;;0.97;54.18
75045;BME280;63614;56.026;35.960;2022-11-14T13:16:25;100218.97;;;1.06;54.04
75045;BME280;63614;56.026;35.960;2022-11-14T13:19:31;100218.06;;;1.07;54.58
75045;BME280;63614;56.026;35.960;2022-11-14T13:22:43;100214.47;;;0.97;53.42
75045;BME280;63614;56.026;35.960;2022-11-14T13:25:29;100205.50;;;0.91;53.25
75045;BME280;63614;56.026;35.960;2022-11-14T13:31:21;100212.53;;;0.87;54.31
75045;BME280;63614;56.026;35.960;2022-11-14T13:51:36;100207.28;;;1.02;54.85
75045;BME280;63614;56.026;35.960;2022-11-14T13:54:21;100205.47;;;1.04;54.77
75045;BME280;63614;56.026;35.960;2022-11-14T14:00:11;100209.34;;;0.97;55.31
75045;BME280;63614;56.026;35.960;2022-11-14T14:04:08;100200.03;;;0.96;55.60
75045;BME280;63614;56.026;35.960;2022-11-14T14:09:36;100210.19;;;0.84;55.63
75045;BME280;63614;56.026;35.960;2022-11-14T14:22:13;100212.75;;;0.71;54.85
75045;BME280;63614;56.026;35.960;2022-11-14T14:25:17;100208.88;;;0.66;54.95
75045;BME280;63614;56.026;35.960;2022-11-14T14:31:01;100207.94;;;0.80;55.06
75045;BME280;63614;56.026;35.960;2022-11-14T14:33:48;100198.94;;;0.74;54.99
75045;BME280;63614;56.026;35.960;2022-11-14T14:36:34;100211.53;;;0.90;55.17
75045;BME280;63614;56.026;35.960;2022-11-14T14:39:24;100202.50;;;0.84;54.15
75045;BME280;63614;56.026;35.960;2022-11-14T14:42:10;100201.09;;;0.80;55.13
75045;BME280;63614;56.026;35.960;2022-11-14T14:44:55;100207.63;;;0.84;55.60
75045;BME280;63614;56.026;35.960;2022-11-14T14:47:42;100212.13;;;0.94;55.43
75045;BME280;63614;56.026;35.960;2022-11-14T14:50:33;100213.78;;;0.82;55.81
75045;BME280;63614;56.026;35.960;2022-11-14T14:53:27;100208.03;;;0.65;55.21
75045;BME280;63614;56.026;35.960;2022-11-14T14:56:20;100205.19;;;0.70;55.28
75045;BME280;63614;56.026;35.960;2022-11-14T14:59:16;100207.63;;;0.71;55.63
75045;BME280;63614;56.026;35.960;2022-11-14T15:02:02;100206.31;;;0.79;55.86
75045;BME280;63614;56.026;35.960;2022-11-14T15:04:47;100195.78;;;0.58;55.77
75045;BME280;63614;56.026;35.960;2022-11-14T15:07:31;100195.69;;;0.59;56.10
75045;BME280;63614;56.026;35.960;2022-11-14T15:10:21;100208.47;;;0.72;55.55
75045;BME280;63614;56.026;35.960;2022-11-14T15:13:10;100205.72;;;0.75;54.88
75045;BME280;63614;56.026;35.960;2022-11-14T15:15:57;100202.22;;;0.63;54.58
75045;BME280;63614;56.026;35.960;2022-11-14T15:18:43;100200.56;;;0.62;54.50
75045;BME280;63614;56.026;35.960;2022-11-14T15:21:29;100194.75;;;0.60;54.21
75045;BME280;63614;56.026;35.960;2022-11-14T15:24:18;100190.66;;;0.58;54.64
75045;BME280;63614;56.026;35.960;2022-11-14T15:27:23;100177.63;;;0.48;54.49
75045;BME280;63614;56.026;35.960;2022-11-14T15:30:20;100191.16;;;0.63;54.60
75045;BME280;63614;56.026;35.960;2022-11-14T15:33:25;100188.22;;;0.43;53.79
75045;BME280;63614;56.026;35.960;2022-11-14T15:36:15;100189.94;;;0.43;53.86
75045;BME280;63614;56.026;35.960;2022-11-14T15:39:04;100181.84;;;0.36;53.92
75045;BME280;63614;56.026;35.960;2022-11-14T15:41:48;100181.44;;;0.42;54.25
75045;BME280;63614;56.026;35.960;2022-11-14T15:44:33;100185.44;;;0.46;54.99
75045;BME280;63614;56.026;35.960;2022-11-14T15:47:22;100189.31;;;0.52;55.03
75045;BME280;63614;56.026;35.960;2022-11-14T15:53:04;100186.66;;;0.53;55.14
75045;BME280;63614;56.026;35.960;2022-11-14T15:55:49;100182.25;;;0.56;55.13
75045;BME280;63614;56.026;35.960;2022-11-14T15:58:33;100188.81;;;0.47;55.79
75045;BME280;63614;56.026;35.960;2022-11-14T16:01:22;100191.78;;;0.53;55.93
75045;BME280;63614;56.026;35.960;2022-11-14T16:04:17;100187.47;;;0.54;55.61
75045;BME280;63614;56.026;35.960;2022-11-14T16:07:02;100186.25;;;0.34;55.24
75045;BME280;63614;56.026;35.960;2022-11-14T16:09:47;100178.59;;;0.47;55.24
75045;BME280;63614;56.026;35.960;2022-11-14T16:12:32;100179.59;;;0.44;55.62
75045;BME280;63614;56.026;35.960;2022-11-14T16:15:18;100187.69;;;0.51;55.04
75045;BME280;63614;56.026;35.960;2022-11-14T16:18:04;100177.75;;;0.33;54.86
75045;BME280;63614;56.026;35.960;2022-11-14T16:20:49;100184.91;;;0.28;55.58
75045;BME280;63614;56.026;35.960;2022-11-14T16:23:34;100183.59;;;0.23;55.49